Time;durP1;ratioP1;P1;durP2;ratioP2;P2;SDS_P1;SDS_P2;PMS_P1;PMS_P2;Temp;Humidity;BMP_temperature;BMP_pressure;BME280_temperature;BME280_humidity;BME280_pressure;Samples;Min_cycle;Max_cycle;Signal;HPM_P1;HPM_P2
2021/12/19 00:00:17;;;;;;;11.90;5.75;;;;;;;13.73;52.53;103857.84;4997639;28;20054;-62
2021/12/19 00:08:38;;;;;;;12.27;5.28;;;;;;;13.60;52.72;103848.00;5000008;28;20057;-63
2021/12/19 00:11:04;;;;;;;12.38;5.53;;;;;;;13.66;52.65;103850.81;5014555;28;20033;-63
2021/12/19 00:13:29;;;;;;;11.10;5.80;;;;;;;13.48;52.74;103844.47;5014653;28;20109;-61
2021/12/19 00:15:55;;;;;;;10.15;5.07;;;;;;;13.34;53.27;103834.88;4997236;28;20034;-63
2021/12/19 00:18:21;;;;;;;10.90;5.15;;;;;;;13.22;53.91;103827.47;4997462;28;20030;-62
2021/12/19 00:20:47;;;;;;;10.93;4.88;;;;;;;13.46;53.42;103832.88;4996830;28;20110;-62
2021/12/19 00:23:14;;;;;;;6.75;3.53;;;;;;;12.94;54.68;103827.50;4997117;28;20034;-63
2021/12/19 00:25:39;;;;;;;8.43;3.50;;;;;;;12.98;54.62;103825.91;5013952;28;20037;-65
2021/12/19 00:28:04;;;;;;;8.55;3.50;;;;;;;13.14;54.40;103827.88;4964849;28;20030;-64
2021/12/19 00:30:30;;;;;;;9.10;3.50;;;;;;;13.34;53.49;103821.09;4997130;28;20057;-61
2021/12/19 00:32:56;;;;;;;9.35;4.05;;;;;;;13.16;54.11;103820.19;4996642;28;20030;-62
2021/12/19 00:35:22;;;;;;;9.32;4.25;;;;;;;13.28;53.98;103822.06;5014289;28;20468;-63
2021/12/19 00:37:48;;;;;;;11.32;3.95;;;;;;;12.99;54.68;103816.59;4996562;28;20026;-62
2021/12/19 00:40:14;;;;;;;7.70;3.65;;;;;;;13.15;54.15;103815.75;4996704;28;20034;-62
2021/12/19 00:42:39;;;;;;;8.50;4.00;;;;;;;13.42;53.64;103817.91;4996546;28;20088;-64
2021/12/19 00:45:16;;;;;;;8.82;4.20;;;;;;;12.73;55.08;103818.84;4997059;28;20030;-65
2021/12/19 00:47:45;;;;;;;11.77;4.43;;;;;;;12.89;55.27;103812.56;5013894;28;20081;-62
2021/12/19 00:50:13;;;;;;;9.27;4.05;;;;;;;13.10;54.40;103812.94;4981071;28;20026;-63
2021/12/19 00:52:38;;;;;;;11.98;4.72;;;;;;;13.42;53.70;103810.47;4996279;28;20022;-63
2021/12/19 00:55:05;;;;;;;11.18;5.30;;;;;;;13.21;53.93;103798.25;5013755;28;20057;-62
2021/12/19 00:57:30;;;;;;;9.95;4.80;;;;;;;13.22;54.22;103790.84;4996780;28;20042;-63
2021/12/19 00:59:56;;;;;;;10.73;4.78;;;;;;;13.48;53.33;103794.88;5013405;28;20090;-63
2021/12/19 01:02:21;;;;;;;10.88;4.40;;;;;;;13.49;53.32;103788.28;4996594;28;20065;-62
2021/12/19 01:04:47;;;;;;;9.50;4.13;;;;;;;13.30;53.09;103795.06;4995961;28;20034;-61
2021/12/19 01:07:12;;;;;;;9.35;4.18;;;;;;;13.50;53.17;103789.09;4980592;28;20058;-61
2021/12/19 01:09:38;;;;;;;11.30;4.75;;;;;;;13.48;52.75;103786.59;4995945;28;20042;-62
2021/12/19 01:12:04;;;;;;;10.60;4.57;;;;;;;13.66;52.66;103784.66;4980215;28;20038;-62
2021/12/19 01:14:30;;;;;;;11.13;4.57;;;;;;;13.64;52.46;103784.09;4996348;28;20026;-61
2021/12/19 01:16:55;;;;;;;9.77;4.60;;;;;;;13.70;52.42;103778.41;5013038;28;20038;-64
2021/12/19 01:19:22;;;;;;;10.73;5.03;;;;;;;13.77;52.31;103780.97;5013533;28;20037;-65
2021/12/19 01:21:49;;;;;;;10.93;5.25;;;;;;;13.79;52.27;103778.78;5012784;28;20037;-64
2021/12/19 01:24:14;;;;;;;12.55;5.75;;;;;;;13.89;52.25;103769.84;5013200;28;20029;-61
2021/12/19 01:26:42;;;;;;;13.15;5.82;;;;;;;13.84;52.25;103776.13;4995699;28;20068;-65
2021/12/19 01:29:07;;;;;;;;;;;;;;;13.85;51.96;103775.00;4980517;28;20026;-64
2021/12/19 01:31:33;;;;;;;13.73;5.63;;;;;;;13.38;53.11;103779.00;5013407;28;19937;-64
2021/12/19 01:33:58;;;;;;;15.00;5.60;;;;;;;13.00;54.67;103780.53;4995627;28;20093;-64
2021/12/19 01:36:23;;;;;;;14.63;6.68;;;;;;;13.39;54.03;103772.44;5013116;28;20034;-65
2021/12/19 01:38:49;;;;;;;16.27;6.13;;;;;;;13.40;53.88;103774.06;4995570;28;20036;-62
2021/12/19 01:41:14;;;;;;;16.02;5.95;;;;;;;13.47;53.76;103768.38;4979427;28;20034;-64
2021/12/19 01:43:40;;;;;;;14.60;5.38;;;;;;;13.60;53.22;103768.06;5013087;28;20022;-64
2021/12/19 01:46:05;;;;;;;17.52;6.03;;;;;;;13.28;52.95;103761.44;5012387;28;20037;-63
2021/12/19 01:48:30;;;;;;;16.52;5.72;;;;;;;13.89;52.76;103765.16;5012347;28;20030;-61
2021/12/19 01:50:56;;;;;;;17.40;5.78;;;;;;;13.74;53.05;103759.41;5012495;28;20054;-65
2021/12/19 01:53:22;;;;;;;13.07;5.22;;;;;;;13.83;52.97;103755.13;4979620;28;20026;-64
2021/12/19 01:55:48;;;;;;;13.60;5.45;;;;;;;13.87;52.28;103756.31;5012337;28;20026;-65
2021/12/19 01:58:16;;;;;;;14.60;5.35;;;;;;;13.77;53.14;103758.91;4995632;28;20034;-63
2021/12/19 02:00:45;;;;;;;14.75;5.55;;;;;;;13.85;53.24;103752.97;4963583;28;20045;-62
2021/12/19 02:03:11;;;;;;;14.18;5.70;;;;;;;13.70;52.35;103752.75;5012501;28;20050;-63
2021/12/19 02:05:38;;;;;;;15.02;5.88;;;;;;;13.78;52.96;103753.16;4995389;28;20026;-62
2021/12/19 02:08:04;;;;;;;12.43;5.93;;;;;;;13.76;53.54;103755.34;5012158;28;20026;-65
2021/12/19 02:10:32;;;;;;;14.50;5.88;;;;;;;13.84;53.25;103755.97;5012731;28;20061;-63
2021/12/19 02:12:59;;;;;;;15.20;5.93;;;;;;;13.74;52.97;103752.00;5011805;28;20086;-66
2021/12/19 02:15:27;;;;;;;15.88;6.03;;;;;;;13.54;53.99;103752.53;5012433;28;20498;-62
2021/12/19 02:17:55;;;;;;;15.52;6.07;;;;;;;13.60;53.98;103745.16;4994890;28;20034;-63
2021/12/19 02:20:22;;;;;;;18.85;6.32;;;;;;;13.61;54.24;103742.13;5012236;28;20022;-62
2021/12/19 02:22:48;;;;;;;17.30;5.85;;;;;;;13.60;54.26;103746.00;4994711;28;20027;-63
2021/12/19 02:25:14;;;;;;;16.10;5.93;;;;;;;13.46;54.78;103741.06;5012224;28;20030;-63
2021/12/19 02:27:40;;;;;;;17.65;6.15;;;;;;;13.65;53.92;103741.63;5012393;28;20065;-64
2021/12/19 02:30:07;;;;;;;15.18;5.78;;;;;;;13.38;54.29;103736.84;4994587;28;20026;-64
2021/12/19 02:32:34;;;;;;;17.75;6.07;;;;;;;13.64;54.34;103734.47;5012500;28;20023;-62
2021/12/19 02:35:04;;;;;;;17.57;6.83;;;;;;;13.45;54.19;103720.97;4994678;28;20030;-63
2021/12/19 02:50:49;;;;;;;9.38;3.65;;;;;;;13.87;54.35;103719.59;5012223;28;20049;-61
2021/12/19 02:53:23;;;;;;;9.57;3.83;;;;;;;13.59;55.33;103715.94;5009971;28;20083;-63
2021/12/19 02:55:48;;;;;;;8.10;3.28;;;;;;;13.22;56.53;103714.53;4995916;28;20069;-64
2021/12/19 02:58:14;;;;;;;7.55;2.85;;;;;;;13.13;57.13;103706.94;5011670;28;20030;-67
2021/12/19 03:00:39;;;;;;;4.85;2.20;;;;;;;13.05;56.52;103705.44;4993740;28;20037;-63
2021/12/19 03:03:05;;;;;;;5.43;2.40;;;;;;;13.30;56.27;103688.47;4962122;28;20027;-64
2021/12/19 03:05:33;;;;;;;6.25;2.88;;;;;;;13.40;56.15;103690.59;4994558;28;20037;-62
2021/12/19 03:08:01;;;;;;;5.68;2.50;;;;;;;13.58;56.00;103695.81;5011521;28;20058;-62
2021/12/19 03:18:33;;;;;;;9.20;3.85;;;;;;;13.22;56.20;103672.38;5011841;28;20045;-64
2021/12/19 03:20:59;;;;;;;13.30;4.20;;;;;;;13.24;56.48;103661.94;4978246;28;20030;-66
2021/12/19 03:23:25;;;;;;;10.95;4.55;;;;;;;13.02;56.96;103668.19;4994241;28;20030;-64
2021/12/19 03:25:50;;;;;;;12.63;5.15;;;;;;;13.27;57.07;103660.56;4994027;28;20058;-65
2021/12/19 03:28:16;;;;;;;13.48;5.15;;;;;;;13.68;55.54;103656.53;5011107;28;20102;-63
2021/12/19 03:30:44;;;;;;;15.80;5.85;;;;;;;12.60;58.68;103660.34;4978197;28;20030;-64
2021/12/19 03:33:11;;;;;;;9.93;4.63;;;;;;;12.44;58.40;103651.00;4994011;28;20019;-65
2021/12/19 03:35:37;;;;;;;9.05;3.63;;;;;;;12.83;58.63;103631.81;5011457;28;20078;-62
2021/12/19 03:38:05;;;;;;;6.00;2.67;;;;;;;13.27;56.74;103636.63;4993913;28;20026;-64
2021/12/19 03:40:39;;;;;;;6.68;3.22;;;;;;;13.09;57.85;103640.47;5011515;28;20086;-65
2021/12/19 03:43:12;;;;;;;8.95;3.70;;;;;;;13.30;56.74;103627.00;5011001;28;20026;-64
2021/12/19 03:45:39;;;;;;;6.80;3.60;;;;;;;12.98;57.96;103624.88;5011457;28;20026;-62
2021/12/19 03:48:08;;;;;;;;;;;;;;;13.03;57.68;103631.31;4994210;28;20026;-62
2021/12/19 03:50:34;;;;;;;8.18;3.78;;;;;;;13.23;56.97;103628.06;5011624;28;20293;-63
2021/12/19 03:53:00;;;;;;;8.10;4.10;;;;;;;13.16;56.89;103634.81;5010721;28;20053;-63
2021/12/19 03:55:27;;;;;;;9.30;4.10;;;;;;;13.22;56.97;103631.06;4994195;28;20031;-64
2021/12/19 03:57:53;;;;;;;7.88;3.65;;;;;;;13.05;57.95;103633.81;5011410;28;20091;-65
2021/12/19 04:00:25;;;;;;;9.10;3.88;;;;;;;13.60;56.52;103626.63;5010902;28;20034;-63
2021/12/19 04:02:57;;;;;;;10.63;4.60;;;;;;;13.32;57.75;103627.63;4978665;28;20042;-63
2021/12/19 04:05:24;;;;;;;10.90;4.90;;;;;;;13.33;57.66;103630.16;5010886;28;20027;-62
2021/12/19 04:07:50;;;;;;;11.17;5.00;;;;;;;14.01;55.70;103623.53;5011339;28;20030;-64
2021/12/19 04:10:16;;;;;;;8.80;3.65;;;;;;;13.71;56.11;103614.66;5010770;28;20338;-62
2021/12/19 04:12:42;;;;;;;6.47;3.05;;;;;;;13.39;56.66;103606.25;4995751;28;20105;-63
2021/12/19 04:15:09;;;;;;;7.13;2.57;;;;;;;13.57;56.82;103603.19;4997336;28;20102;-65
2021/12/19 04:17:35;;;;;;;5.75;2.65;;;;;;;13.74;56.00;103597.59;4997316;28;20053;-63
2021/12/19 04:20:01;;;;;;;5.85;2.30;;;;;;;13.94;55.06;103597.00;5014266;28;20538;-62
2021/12/19 04:22:26;;;;;;;5.13;2.13;;;;;;;13.89;55.32;103588.66;4997334;28;20032;-63
2021/12/19 04:24:51;;;;;;;5.65;2.28;;;;;;;13.80;56.32;103590.22;4997178;28;20035;-63
2021/12/19 04:27:18;;;;;;;5.30;2.28;;;;;;;13.33;57.45;103598.97;4980529;28;20047;-62
2021/12/19 04:29:44;;;;;;;6.10;1.85;;;;;;;13.02;58.66;103584.75;5014509;28;20058;-61
2021/12/19 04:32:11;;;;;;;5.15;2.00;;;;;;;13.39;57.89;103595.22;4980846;28;20029;-64
2021/12/19 04:34:36;;;;;;;4.72;1.92;;;;;;;13.43;58.06;103594.44;4981418;28;20034;-63
2021/12/19 04:37:11;;;;;;;6.53;2.58;;;;;;;14.02;56.17;103592.13;4980838;28;20117;-62
2021/12/19 04:39:51;;;;;;;6.20;2.47;;;;;;;13.97;56.12;103579.09;4997038;28;20022;-64
2021/12/19 04:53:18;;;;;;;8.50;2.38;;;;;;;12.92;57.91;103568.06;5014350;28;20065;-63
2021/12/19 04:58:44;;;;;;;3.70;1.35;;;;;;;13.87;56.03;103568.78;5013701;28;20034;-62
2021/12/19 05:04:09;;;;;;;3.85;1.80;;;;;;;13.02;58.50;103568.25;4999562;28;20077;-62
2021/12/19 05:14:38;;;;;;;5.85;2.72;;;;;;;13.81;56.77;103571.72;4998500;28;20042;-64
2021/12/19 05:17:08;;;;;;;6.60;3.40;;;;;;;13.60;57.42;103574.25;5008660;28;20022;-63
2021/12/19 05:19:47;;;;;;;8.75;3.42;;;;;;;13.95;56.64;103576.59;4978590;28;20086;-65
2021/12/19 05:22:13;;;;;;;8.63;3.55;;;;;;;13.82;57.17;103573.41;5000161;28;20077;-63
2021/12/19 05:27:22;;;;;;;9.23;3.92;;;;;;;13.85;55.87;103576.47;5010587;28;20073;-62
2021/12/19 05:29:47;;;;;;;8.23;4.25;;;;;;;13.92;56.71;103585.41;4961688;28;20050;-62
2021/12/19 05:32:13;;;;;;;6.78;3.60;;;;;;;13.74;57.45;103578.31;4993611;28;20022;-63
2021/12/19 05:34:38;;;;;;;5.70;2.70;;;;;;;13.56;57.80;103573.13;5013199;28;20036;-62
2021/12/19 05:45:18;;;;;;;6.15;2.30;;;;;;;13.57;57.47;103569.28;4996862;28;20053;-63
2021/12/19 05:47:48;;;;;;;5.63;2.22;;;;;;;13.46;57.78;103575.72;4980087;28;20023;-64
2021/12/19 05:50:16;;;;;;;5.95;2.50;;;;;;;13.66;57.04;103570.47;4978928;28;20094;-64
2021/12/19 05:52:42;;;;;;;4.32;1.88;;;;;;;13.83;56.96;103575.91;4988369;28;20050;-64
2021/12/19 05:55:08;;;;;;;4.88;2.08;;;;;;;13.77;55.88;103572.25;4979510;28;20038;-66
2021/12/19 05:57:34;;;;;;;4.72;1.90;;;;;;;13.79;55.75;103567.31;4979075;28;20033;-64
2021/12/19 06:00:00;;;;;;;3.53;1.42;;;;;;;14.18;55.61;103562.75;5002495;28;20034;-64
2021/12/19 06:02:26;;;;;;;5.68;1.77;;;;;;;14.00;55.75;103561.19;4978636;28;20026;-62
2021/12/19 06:04:52;;;;;;;5.68;1.70;;;;;;;13.66;55.87;103553.94;5012503;28;20049;-63
2021/12/19 06:07:17;;;;;;;4.78;1.70;;;;;;;13.81;56.45;103550.53;4994814;28;20094;-63
2021/12/19 06:09:43;;;;;;;4.95;1.60;;;;;;;13.38;57.70;103549.47;5011882;28;20026;-62
2021/12/19 06:12:08;;;;;;;5.13;1.83;;;;;;;13.56;57.33;103540.88;5012258;28;20022;-62
2021/12/19 06:14:34;;;;;;;4.78;1.50;;;;;;;14.03;55.91;103550.47;5011766;28;20030;-62
2021/12/19 06:17:01;;;;;;;3.10;1.42;;;;;;;14.14;55.55;103548.63;5004323;28;20046;-64
2021/12/19 06:19:27;;;;;;;3.20;1.50;;;;;;;13.76;56.06;103544.94;4994540;28;20081;-63
2021/12/19 06:21:53;;;;;;;3.38;1.25;;;;;;;14.01;56.00;103538.03;5012377;28;20030;-65
2021/12/19 06:24:18;;;;;;;3.15;1.13;;;;;;;14.13;55.09;103534.00;5011652;28;20054;-63
2021/12/19 06:26:44;;;;;;;3.30;1.23;;;;;;;14.10;55.24;103537.28;4994980;28;20053;-64
2021/12/19 06:29:09;;;;;;;2.63;1.08;;;;;;;13.83;56.48;103540.06;4994857;28;20161;-64
2021/12/19 06:31:35;;;;;;;3.05;1.45;;;;;;;13.26;57.67;103530.28;5011687;28;20026;-63
2021/12/19 06:34:00;;;;;;;3.65;1.40;;;;;;;13.20;58.41;103534.91;5012072;28;20026;-63
2021/12/19 06:36:26;;;;;;;3.45;1.27;;;;;;;13.51;56.88;103532.53;5011282;28;20029;-63
2021/12/19 06:38:52;;;;;;;2.92;1.30;;;;;;;13.74;57.03;103533.34;4994834;28;20050;-65
2021/12/19 06:41:18;;;;;;;2.60;1.10;;;;;;;13.60;57.50;103532.91;4994706;28;20030;-63
2021/12/19 06:43:43;;;;;;;4.50;1.27;;;;;;;13.66;57.52;103528.28;4994718;28;20027;-63
2021/12/19 06:46:09;;;;;;;3.03;1.10;;;;;;;13.59;57.95;103521.06;5011650;28;20054;-64
2021/12/19 06:48:34;;;;;;;2.58;1.17;;;;;;;13.88;57.10;103515.28;5011697;28;20029;-64
2021/12/19 06:51:00;;;;;;;3.03;1.25;;;;;;;13.95;57.09;103515.06;5011841;28;20030;-65
2021/12/19 06:53:25;;;;;;;4.63;1.40;;;;;;;14.24;55.90;103512.88;5011254;28;20053;-63
2021/12/19 06:55:51;;;;;;;3.38;1.50;;;;;;;14.37;55.52;103513.53;5011857;28;20038;-61
2021/12/19 06:58:16;;;;;;;4.00;1.58;;;;;;;14.27;55.53;103512.34;5007294;28;20022;-63
2021/12/19 07:00:41;;;;;;;3.08;1.20;;;;;;;13.88;56.92;103518.06;4978092;28;20022;-65
2021/12/19 07:03:09;;;;;;;2.90;1.52;;;;;;;13.16;59.22;103511.69;5011556;28;20070;-64
2021/12/19 07:05:34;;;;;;;2.45;1.15;;;;;;;13.90;57.19;103520.53;5008768;28;20045;-63
2021/12/19 07:08:00;;;;;;;3.75;1.52;;;;;;;13.83;57.27;103512.50;4962245;28;20031;-62
2021/12/19 07:10:25;;;;;;;3.83;1.80;;;;;;;13.43;58.55;103502.69;4977936;28;20030;-62
2021/12/19 07:12:51;;;;;;;3.05;1.52;;;;;;;13.37;58.87;103511.97;4978147;28;20041;-64
2021/12/19 07:15:17;;;;;;;2.92;1.13;;;;;;;12.73;60.16;103502.31;5011429;28;20023;-62
2021/12/19 07:17:43;;;;;;;2.45;0.93;;;;;;;13.22;58.95;103505.16;5011116;28;20087;-64
2021/12/19 07:20:08;;;;;;;2.70;0.73;;;;;;;12.96;59.11;103505.91;5011581;28;20042;-64
2021/12/19 07:22:34;;;;;;;1.98;0.90;;;;;;;12.54;60.59;103506.41;5011151;28;20034;-63
2021/12/19 07:24:59;;;;;;;3.75;0.70;;;;;;;13.26;58.06;103508.22;4994112;28;20030;-63
2021/12/19 07:27:24;;;;;;;2.58;1.00;;;;;;;13.73;57.10;103513.22;5011338;28;20070;-62
2021/12/19 07:29:50;;;;;;;3.90;0.60;;;;;;;13.47;57.49;103514.84;4994463;28;20030;-64
2021/12/19 07:32:16;;;;;;;1.95;0.75;;;;;;;13.50;57.58;103506.06;4994642;28;20030;-64
2021/12/19 07:34:42;;;;;;;3.83;0.75;;;;;;;13.00;58.66;103502.41;4993848;28;20037;-64
2021/12/19 07:37:08;;;;;;;1.98;1.00;;;;;;;13.15;58.61;103500.94;4978414;28;20038;-65
2021/12/19 07:42:02;;;;;;;5.57;1.13;;;;;;;13.14;58.70;103502.00;4994396;28;20030;-64
2021/12/19 07:44:28;;;;;;;2.58;1.08;;;;;;;13.49;57.84;103501.66;5011271;28;20041;-63
2021/12/19 07:46:53;;;;;;;2.30;1.00;;;;;;;13.43;57.72;103499.94;5011848;28;20081;-62
2021/12/19 07:49:19;;;;;;;4.65;1.48;;;;;;;13.02;58.89;103499.38;4998241;28;20027;-63
2021/12/19 07:51:44;;;;;;;3.20;1.60;;;;;;;13.10;59.20;103507.22;4997395;28;20093;-62
2021/12/19 07:54:10;;;;;;;5.53;1.60;;;;;;;13.27;58.63;103501.66;4981622;28;20027;-65
2021/12/19 07:56:35;;;;;;;4.47;1.33;;;;;;;13.72;57.17;103499.69;4997629;28;20036;-65
2021/12/19 07:59:01;;;;;;;5.82;1.95;;;;;;;14.01;56.42;103496.66;4997662;28;20794;-63
2021/12/19 08:01:27;;;;;;;5.00;1.67;;;;;;;13.85;56.75;103495.69;5015089;28;20058;-65
2021/12/19 08:03:52;;;;;;;4.75;1.98;;;;;;;12.87;59.65;103489.84;4997374;28;20042;-65
2021/12/19 08:06:18;;;;;;;5.05;2.20;;;;;;;13.67;57.76;103499.66;4997597;28;20041;-63
2021/12/19 08:08:49;;;;;;;6.45;2.50;;;;;;;13.55;57.95;103497.88;4996901;28;20053;-62
2021/12/19 08:13:59;;;;;;;5.18;2.60;;;;;;;13.27;59.19;103492.53;4986531;28;20041;-62
2021/12/19 08:16:25;;;;;;;7.07;2.80;;;;;;;13.81;57.54;103491.78;4997457;28;20054;-66
2021/12/19 08:18:52;;;;;;;8.98;3.35;;;;;;;14.00;57.05;103479.28;5014445;28;20034;-63
2021/12/19 08:21:18;;;;;;;5.18;2.60;;;;;;;13.67;57.67;103486.69;4998037;28;20042;-62
2021/12/19 08:23:43;;;;;;;5.13;2.67;;;;;;;13.90;57.37;103480.03;5014315;28;20038;-64
2021/12/19 08:26:08;;;;;;;7.28;2.90;;;;;;;13.32;59.02;103479.66;4997336;28;20129;-63
2021/12/19 08:28:34;;;;;;;7.85;2.85;;;;;;;13.25;59.15;103479.88;4981170;28;20054;-63
2021/12/19 08:30:59;;;;;;;5.72;2.78;;;;;;;13.40;58.65;103475.66;4997270;28;20041;-64
2021/12/19 08:33:24;;;;;;;4.50;2.20;;;;;;;13.42;58.37;103474.28;5014619;28;20027;-64
2021/12/19 08:35:50;;;;;;;3.72;1.80;;;;;;;13.38;58.37;103477.84;4980586;28;20030;-66
2021/12/19 08:38:15;;;;;;;4.95;1.77;;;;;;;13.97;56.96;103469.59;5014303;28;20037;-65
2021/12/19 08:40:41;;;;;;;4.97;1.98;;;;;;;14.20;56.44;103481.38;5013957;28;20060;-65
2021/12/19 08:43:07;;;;;;;4.22;1.70;;;;;;;13.57;57.99;103484.66;4997094;28;20053;-63
2021/12/19 08:45:33;;;;;;;6.63;1.85;;;;;;;13.64;58.16;103481.69;4980789;28;20034;-64
2021/12/19 08:47:58;;;;;;;4.60;1.60;;;;;;;13.34;58.90;103487.69;5014104;28;20094;-63
2021/12/19 08:50:24;;;;;;;4.28;1.50;;;;;;;12.95;60.38;103480.31;5013927;28;20487;-63
2021/12/19 08:52:52;;;;;;;2.75;1.20;;;;;;;12.86;60.14;103477.16;4996506;28;20794;-64
2021/12/19 08:55:19;;;;;;;3.30;1.27;;;;;;;13.57;58.82;103470.88;4997043;28;20030;-65
2021/12/19 08:57:44;;;;;;;3.13;1.35;;;;;;;13.60;58.34;103481.38;5013662;28;20057;-64
2021/12/19 09:00:11;;;;;;;4.50;1.50;;;;;;;13.59;58.18;103471.44;4996136;28;20031;-63
2021/12/19 09:02:45;;;;;;;3.67;1.33;;;;;;;13.93;57.68;103465.69;5013459;28;20030;-66
2021/12/19 09:05:11;;;;;;;3.35;1.40;;;;;;;14.21;56.83;103469.25;5013804;28;20026;-65
2021/12/19 09:07:36;;;;;;;2.67;1.10;;;;;;;13.99;57.29;103460.25;5013379;28;20066;-62
2021/12/19 09:10:04;;;;;;;4.80;1.25;;;;;;;13.99;57.54;103460.25;4996549;28;20030;-63
2021/12/19 09:12:29;;;;;;;3.63;1.10;;;;;;;14.07;57.24;103463.34;5013699;28;20023;-64
2021/12/19 09:14:55;;;;;;;2.20;1.00;;;;;;;13.05;59.68;103468.59;4980066;28;20026;-63
2021/12/19 09:17:20;;;;;;;2.13;0.82;;;;;;;12.63;60.81;103467.22;5013498;28;20046;-63
2021/12/19 09:19:45;;;;;;;0.65;0.40;;;;;;;12.49;61.18;103477.72;5013163;28;20035;-61
2021/12/19 09:22:11;;;;;;;1.08;0.50;;;;;;;12.40;61.37;103467.41;4980092;28;20039;-64
2021/12/19 09:24:37;;;;;;;1.75;0.70;;;;;;;13.00;59.96;103471.28;5013079;28;20038;-64
2021/12/19 09:27:03;;;;;;;2.58;0.55;;;;;;;13.69;58.02;103467.13;4980002;28;20054;-65
2021/12/19 09:29:29;;;;;;;0.50;0.40;;;;;;;13.04;59.63;103466.91;5013486;28;20034;-63
2021/12/19 09:31:56;;;;;;;0.95;0.40;;;;;;;13.27;58.86;103467.72;4995665;28;20030;-64
2021/12/19 09:34:26;;;;;;;1.08;0.50;;;;;;;13.67;58.22;103466.56;4996145;28;20093;-65
2021/12/19 09:36:51;;;;;;;3.08;0.90;;;;;;;13.34;58.83;103460.97;5012800;28;20360;-64
2021/12/19 09:39:18;;;;;;;2.25;0.80;;;;;;;13.25;59.39;103449.56;5013130;28;20057;-65
2021/12/19 09:41:44;;;;;;;3.50;0.80;;;;;;;13.70;58.34;103444.81;4995559;28;20084;-63
2021/12/19 09:44:14;;;;;;;2.28;0.90;;;;;;;13.59;58.78;103452.16;4996190;28;20061;-62
2021/12/19 09:46:41;;;;;;;2.20;0.90;;;;;;;13.69;58.16;103456.09;5012918;28;20026;-63
2021/12/19 09:49:09;;;;;;;2.10;1.08;;;;;;;13.59;58.34;103459.59;5012972;28;20106;-64
2021/12/19 09:51:35;;;;;;;1.92;1.10;;;;;;;13.64;58.38;103456.88;4995593;28;20061;-62
2021/12/19 09:54:01;;;;;;;4.22;1.38;;;;;;;13.78;58.30;103462.81;4995374;28;20034;-62
2021/12/19 09:56:26;;;;;;;3.85;1.63;;;;;;;13.49;58.88;103462.22;5012861;28;20027;-64
2021/12/19 09:58:53;;;;;;;3.15;1.30;;;;;;;13.78;57.87;103454.53;5013163;28;20026;-64
2021/12/19 10:01:19;;;;;;;4.50;1.50;;;;;;;14.04;57.41;103454.75;4996315;28;20034;-66
2021/12/19 10:03:44;;;;;;;2.38;0.90;;;;;;;12.95;59.42;103460.19;4995488;28;20294;-65
2021/12/19 10:06:25;;;;;;;5.68;1.17;;;;;;;13.87;57.81;103465.91;4996187;28;20042;-68
2021/12/19 10:09:09;;;;;;;2.05;1.00;;;;;;;13.76;57.82;103462.22;4979709;28;20034;-67
2021/12/19 10:14:28;;;;;;;2.15;0.70;;;;;;;13.97;56.87;103450.31;5013041;28;20069;-66
2021/12/19 10:16:55;;;;;;;1.88;0.70;;;;;;;14.43;55.88;103452.59;4995506;28;20062;-68
2021/12/19 10:19:21;;;;;;;1.48;0.57;;;;;;;14.51;55.31;103442.97;5013318;28;20040;-64
2021/12/19 10:21:46;;;;;;;2.10;0.68;;;;;;;14.12;55.96;103437.72;4995119;28;20022;-64
2021/12/19 10:24:32;;;;;;;2.15;0.57;;;;;;;14.81;54.61;103438.72;4979225;28;20094;-64
2021/12/19 10:26:58;;;;;;;2.85;1.05;;;;;;;14.49;55.09;103436.88;4994535;28;20515;-62
2021/12/19 10:29:41;;;;;;;2.95;0.70;;;;;;;14.74;55.06;103438.16;4995438;28;20030;-63
2021/12/19 10:32:06;;;;;;;2.95;0.80;;;;;;;14.45;55.30;103433.81;5012065;28;20022;-65
2021/12/19 10:34:32;;;;;;;3.58;1.00;;;;;;;14.81;54.44;103434.06;4999950;28;20040;-64
2021/12/19 10:36:57;;;;;;;3.15;1.00;;;;;;;14.74;54.26;103429.88;5013826;28;20034;-65
2021/12/19 10:39:24;;;;;;;3.35;1.05;;;;;;;15.04;53.75;103434.69;5031766;28;20026;-63
2021/12/19 10:41:58;;;;;;;3.53;1.10;;;;;;;14.99;54.01;103429.97;5014148;28;20033;-65
2021/12/19 10:47:27;;;;;;;5.80;1.73;;;;;;;15.42;52.86;103416.84;5017274;28;20041;-63
2021/12/19 10:49:53;;;;;;;7.93;1.67;;;;;;;15.18;53.50;103407.41;5013777;28;20030;-63
2021/12/19 10:52:39;;;;;;;3.75;1.73;;;;;;;14.25;56.03;103403.34;5031768;28;20041;-63
2021/12/19 10:55:09;;;;;;;5.97;1.67;;;;;;;14.76;54.58;103411.94;5024603;28;20038;-64
2021/12/19 10:57:38;;;;;;;4.82;1.92;;;;;;;14.34;55.56;103396.22;5013279;28;20068;-64
2021/12/19 11:00:09;;;;;;;6.32;2.47;;;;;;;14.12;55.86;103385.31;5003267;28;20034;-64
2021/12/19 11:02:40;;;;;;;9.30;2.70;;;;;;;13.74;56.96;103385.31;5002114;28;20034;-64
2021/12/19 11:05:22;;;;;;;7.20;2.50;;;;;;;13.88;56.74;103384.88;5016520;28;20050;-64
2021/12/19 11:08:01;;;;;;;7.15;3.03;;;;;;;14.38;55.72;103382.72;5017037;28;20021;-64
2021/12/19 11:10:29;;;;;;;11.70;3.15;;;;;;;14.41;55.36;103379.41;5020151;28;20034;-64
2021/12/19 11:13:14;;;;;;;6.43;3.10;;;;;;;14.74;54.76;103377.41;5030878;28;20018;-65
2021/12/19 11:15:41;;;;;;;8.77;3.17;;;;;;;14.10;55.98;103379.25;5028828;28;20026;-63
2021/12/19 11:18:07;;;;;;;10.45;3.90;;;;;;;14.29;55.84;103372.19;5000345;28;20022;-63
2021/12/19 11:20:33;;;;;;;13.00;4.15;;;;;;;14.17;55.71;103363.28;4996255;28;20090;-64
2021/12/19 11:22:59;;;;;;;11.57;3.92;;;;;;;14.16;56.46;103358.88;4999208;28;20033;-63
2021/12/19 11:25:25;;;;;;;11.85;4.38;;;;;;;14.27;56.06;103357.84;5022568;28;20026;-63
2021/12/19 11:27:51;;;;;;;10.40;3.90;;;;;;;14.44;55.30;103351.28;5025243;28;20059;-65
2021/12/19 11:30:18;;;;;;;11.48;3.75;;;;;;;13.79;57.00;103349.53;5004647;28;20044;-64
2021/12/19 11:33:02;;;;;;;8.95;3.42;;;;;;;12.84;59.30;103355.44;5010842;28;20022;-63
2021/12/19 11:35:31;;;;;;;10.13;4.28;;;;;;;12.96;59.03;103348.97;5026702;28;20062;-63
2021/12/19 11:38:06;;;;;;;11.50;3.28;;;;;;;13.42;58.27;103341.19;5018654;28;20030;-64
2021/12/19 11:40:35;;;;;;;10.43;3.65;;;;;;;13.55;57.45;103340.78;4997314;28;20049;-64
2021/12/19 11:43:07;;;;;;;13.27;3.53;;;;;;;13.19;57.28;103336.84;5017878;28;20573;-63
2021/12/19 11:45:42;;;;;;;10.40;2.70;;;;;;;13.08;56.80;103335.88;5028446;28;20035;-62
2021/12/19 11:48:15;;;;;;;7.53;2.30;;;;;;;13.43;55.62;103331.84;5004538;28;20105;-63
2021/12/19 11:50:52;;;;;;;8.70;2.42;;;;;;;14.04;54.52;103325.13;5006861;28;20030;-64
2021/12/19 11:53:18;;;;;;;10.20;2.50;;;;;;;14.37;53.46;103323.13;5017325;28;20017;-62
2021/12/19 11:55:43;;;;;;;10.35;2.60;;;;;;;14.00;54.04;103324.00;5020002;28;20056;-62
2021/12/19 11:58:08;;;;;;;9.63;2.70;;;;;;;14.12;53.91;103321.88;5026314;28;20081;-63
2021/12/19 12:00:40;;;;;;;10.32;2.78;;;;;;;13.86;54.81;103320.88;5023373;28;20027;-64
2021/12/19 12:03:11;;;;;;;12.07;2.83;;;;;;;14.46;53.46;103322.34;5024848;28;20880;-63
2021/12/19 12:05:38;;;;;;;11.20;3.38;;;;;;;14.42;53.08;103310.16;5015377;28;20027;-67
2021/12/19 12:08:09;;;;;;;11.32;2.90;;;;;;;13.24;57.07;103318.41;5022220;28;20038;-66
2021/12/19 12:10:47;;;;;;;11.68;2.80;;;;;;;13.38;56.76;103315.28;4997760;28;20045;-68
2021/12/19 12:13:23;;;;;;;9.25;3.28;;;;;;;14.03;54.68;103313.28;5016812;28;20082;-65
2021/12/19 12:15:51;;;;;;;9.57;2.92;;;;;;;14.62;53.17;103297.56;5013208;28;20030;-65
2021/12/19 12:18:37;;;;;;;12.85;7.30;;;;;;;13.84;55.26;103303.75;5014256;28;20023;-64
2021/12/19 12:21:23;;;;;;;9.20;2.80;;;;;;;12.75;57.57;103320.38;5014178;28;20030;-65
2021/12/19 12:23:55;;;;;;;20.60;7.43;;;;;;;13.05;56.98;103300.59;5014491;28;20034;-64
2021/12/19 12:26:29;;;;;;;9.63;3.40;;;;;;;13.30;56.38;103299.16;5013963;28;20077;-62
2021/12/19 12:28:55;;;;;;;10.32;2.88;;;;;;;12.78;57.53;103300.59;4996649;28;20049;-63
2021/12/19 12:31:20;;;;;;;7.15;2.65;;;;;;;12.88;57.71;103296.03;4996326;28;20026;-63
2021/12/19 12:33:46;;;;;;;9.63;2.33;;;;;;;12.35;58.97;103297.59;5013685;28;20042;-64
2021/12/19 12:36:11;;;;;;;10.88;2.50;;;;;;;13.05;57.93;103290.41;4996688;28;20030;-63
2021/12/19 12:38:37;;;;;;;8.40;2.28;;;;;;;12.80;59.14;103293.72;5014000;28;20030;-65